Weather History for Mammoth, CA

Change the Weather History Date:

Thursday, May 23, 2013

  Actual Average Record
Temperature  
Mean Temperature 42 °F -  
Max Temperature 60 °F 65 °F 78 °F (2001)
Min Temperature 24 °F 53 °F 24 °F (2013)
Degree Days  
Heating Degree Days 23    
Moisture  
Dew Point 8 °F    
Average Humidity 26    
Maximum Humidity 54    
Minimum Humidity 5    
Precipitation  
Precipitation 0.00 in - - ()
Sea Level Pressure  
Sea Level Pressure 29.92 in    
Wind  
Wind Speed 10 mph (West)    
Max Wind Speed 28 mph    
Max Gust Speed 40 mph    
Visibility 10 miles    
Events      
Averages and records for this station are not official NWS values.
T = Trace of Precipitation, MM = Missing Value Source: NWS Daily Summary

Daily Weather History Graph

Daily Weather History Graph

Search for Another Location

Airport:

Trip Planner

Search our weather history database for the weather conditions in past years. The results will help you decide how hot, cold, wet, or windy it might be!

Date:

Astronomy

May. 23, 2013 Rise Set
Actual Time 5:39 AM PDT 8:04 PM PDT
Civil Twilight 5:09 AM PDT 8:34 PM PDT
Nautical Twilight 4:32 AM PDT 9:12 PM PDT
Astronomical Twilight 3:51 AM PDT 9:53 PM PDT
Moon 6:44 PM PDT (5/23) 4:26 AM PDT (5/23)
Length of Visible Light 15h 25m
Length of Day
14h 25m
Waxing Gibbous, 97% of the Moon is Illuminated
May 23
Waxing Gibbous
May 24
Full
May 31
Last Quarter
Jun 8
New
Jun 16
First Quarter

Hourly Weather History & Observations

Time (PDT) Temp. Windchill Dew Point Humidity Pressure Visibility Wind Dir Wind Speed Gust Speed Precip Events Conditions
12:15 AM 37.4 °F 29.8 °F 14.0 °F 38% 29.86 in 10.0 mi West 11.5 mph 23.0 mph N/A   Clear
12:35 AM 35.6 °F 27.5 °F 15.8 °F 44% 29.86 in 10.0 mi WSW 11.5 mph - N/A   Clear
12:55 AM 37.4 °F 29.3 °F 15.8 °F 41% 29.85 in 10.0 mi West 12.7 mph 26.5 mph N/A   Clear
1:15 AM 37.4 °F 27.8 °F 15.8 °F 41% 29.84 in 10.0 mi West 17.3 mph 24.2 mph N/A   Clear
1:35 AM 37.4 °F 28.2 °F 14.0 °F 38% 29.84 in 10.0 mi West 16.1 mph 24.2 mph N/A   Clear
1:55 AM 35.6 °F 26.2 °F 15.8 °F 44% 29.84 in 10.0 mi West 15.0 mph 19.6 mph N/A   Clear
2:15 AM 37.4 °F 28.2 °F 14.0 °F 38% 29.83 in 10.0 mi West 16.1 mph 26.5 mph N/A   Clear
2:35 AM 37.4 °F 30.3 °F 14.0 °F 38% 29.83 in 10.0 mi West 10.4 mph 19.6 mph N/A   Clear
2:55 AM 35.6 °F - 12.2 °F 38% 29.84 in 10.0 mi Calm Calm - N/A   Clear
3:15 AM 35.6 °F - 12.2 °F 38% 29.84 in 10.0 mi Calm Calm - N/A   Clear
3:35 AM 33.8 °F 28.6 °F 12.2 °F 41% 29.84 in 10.0 mi SSE 5.8 mph - N/A   Clear
3:55 AM 32.0 °F 27.5 °F 12.2 °F 44% 29.84 in 10.0 mi SSE 4.6 mph - N/A   Clear
4:15 AM 32.0 °F 25.6 °F 14.0 °F 48% 29.83 in 10.0 mi SE 6.9 mph - N/A   Clear
4:35 AM 32.0 °F 25.6 °F 14.0 °F 48% 29.84 in 10.0 mi ESE 6.9 mph - N/A   Clear
4:55 AM 30.2 °F 24.3 °F 12.2 °F 47% 29.84 in 10.0 mi SE 5.8 mph - N/A   Clear
5:15 AM 30.2 °F 26.7 °F 10.4 °F 44% 29.84 in 10.0 mi South 3.5 mph - N/A   Clear
5:35 AM 28.4 °F - 10.4 °F 47% 29.84 in 10.0 mi Calm Calm - N/A   Clear
5:55 AM 26.6 °F - 8.6 °F 47% 29.85 in 10.0 mi Calm Calm - N/A   Clear
6:15 AM 26.6 °F - 8.6 °F 47% 29.85 in 10.0 mi Calm Calm - N/A   Clear
6:35 AM 24.8 °F - 10.4 °F 54% 29.85 in 10.0 mi Calm Calm - N/A   Clear
6:55 AM 33.8 °F - 12.2 °F 41% 29.86 in 10.0 mi Calm Calm - N/A   Clear
7:15 AM 37.4 °F - 12.2 °F 36% 29.86 in 10.0 mi Calm Calm - N/A   Clear
7:35 AM 39.2 °F 35.0 °F 12.2 °F 33% 29.87 in 10.0 mi ESE 5.8 mph - N/A   Clear
7:55 AM 41.0 °F 39.0 °F 14.0 °F 33% 29.87 in 10.0 mi East 3.5 mph - N/A   Clear
8:15 AM 42.8 °F - 12.2 °F 29% 29.86 in 10.0 mi Calm Calm - N/A   Clear
8:35 AM 44.6 °F 39.7 °F 12.2 °F 27% 29.87 in 10.0 mi SE 9.2 mph - N/A   Clear
8:55 AM 46.4 °F 42.4 °F 10.4 °F 23% 29.87 in 10.0 mi SE 8.1 mph - N/A   Clear
9:15 AM 50.0 °F - 8.6 °F 19% 29.86 in 10.0 mi East 10.4 mph 16.1 mph N/A   Clear
9:35 AM 50.0 °F - 5.0 °F 16% 29.86 in 10.0 mi SE 9.2 mph - N/A   Clear
9:55 AM 53.6 °F - 3.2 °F 13% 29.86 in 10.0 mi SE 9.2 mph - N/A   Clear
10:15 AM 55.4 °F - -2.2 °F 9% 29.85 in 10.0 mi South 4.6 mph - N/A   Clear
10:35 AM 57.2 °F - -9.4 °F 6% 29.86 in 10.0 mi South 5.8 mph 19.6 mph N/A   Clear
10:55 AM 59.0 °F - -9.4 °F 6% 29.85 in 10.0 mi NNW 10.4 mph 26.5 mph N/A   Clear
11:15 AM 59.0 °F - -11.2 °F 5% 29.86 in 10.0 mi SW 15.0 mph 31.1 mph N/A   Clear
11:35 AM 59.0 °F - -9.4 °F 6% 29.87 in 10.0 mi West 16.1 mph 24.2 mph N/A   Clear
11:55 AM 59.0 °F - -11.2 °F 5% 29.88 in 10.0 mi SW 12.7 mph 40.3 mph N/A   Clear
12:15 PM 60.8 °F - -5.8 °F 7% 29.89 in 10.0 mi SW 19.6 mph 39.1 mph N/A   Clear
12:35 PM 59.0 °F - -4.0 °F 8% 29.90 in 10.0 mi West 12.7 mph 29.9 mph N/A   Clear
12:55 PM 59.0 °F - -4.0 °F 8% 29.90 in 10.0 mi West 15.0 mph 25.3 mph N/A   Clear
1:15 PM 60.8 °F - -2.2 °F 8% 29.91 in 10.0 mi WNW 17.3 mph 29.9 mph N/A   Clear
1:35 PM 59.0 °F - 1.4 °F 10% 29.91 in 10.0 mi West 19.6 mph 26.5 mph N/A   Clear
1:55 PM 59.0 °F - 3.2 °F 11% 29.92 in 10.0 mi WNW 23.0 mph 40.3 mph N/A   Clear
2:15 PM 59.0 °F - 3.2 °F 11% 29.92 in 10.0 mi WNW 27.6 mph 36.8 mph N/A   Clear
2:35 PM 60.8 °F - 5.0 °F 11% 29.93 in 10.0 mi WNW 27.6 mph 39.1 mph N/A   Clear
2:55 PM 59.0 °F - 3.2 °F 11% 29.94 in 10.0 mi NW 24.2 mph 34.5 mph N/A   Clear
3:15 PM 59.0 °F - 5.0 °F 12% 29.96 in 10.0 mi NW 17.3 mph 27.6 mph N/A   Clear
3:35 PM 59.0 °F - 5.0 °F 12% 29.97 in 10.0 mi WNW 20.7 mph 31.1 mph N/A   Clear
3:55 PM 59.0 °F - 5.0 °F 12% 29.97 in 10.0 mi WNW 21.9 mph 28.8 mph N/A   Clear
4:15 PM 59.0 °F - 6.8 °F 13% 29.97 in 10.0 mi NW 16.1 mph 29.9 mph N/A   Clear
4:35 PM 59.0 °F - 6.8 °F 13% 29.98 in 10.0 mi WNW 19.6 mph 26.5 mph N/A   Clear
4:55 PM 59.0 °F - 6.8 °F 13% 29.98 in 10.0 mi NW 18.4 mph 25.3 mph N/A   Clear
5:15 PM 59.0 °F - 6.8 °F 13% 29.97 in 10.0 mi NW 16.1 mph 24.2 mph N/A   Clear
5:35 PM 59.0 °F - 5.0 °F 12% 29.98 in 10.0 mi WNW 20.7 mph 24.2 mph N/A   Clear
5:55 PM 57.2 °F - 6.8 °F 13% 29.98 in 10.0 mi WNW 12.7 mph 19.6 mph N/A   Clear
6:15 PM 57.2 °F - 6.8 °F 13% 29.98 in 10.0 mi NW 12.7 mph - N/A   Clear
6:35 PM 57.2 °F - 6.8 °F 13% 29.99 in 10.0 mi NW 12.7 mph 18.4 mph N/A   Clear
6:55 PM 55.4 °F - 6.8 °F 14% 29.99 in 10.0 mi WNW 11.5 mph 17.3 mph N/A   Clear
7:15 PM 55.4 °F - 8.6 °F 15% 30.00 in 10.0 mi WNW 6.9 mph 16.1 mph N/A   Clear
7:35 PM 53.6 °F - 8.6 °F 16% 30.01 in 10.0 mi WNW 9.2 mph 17.3 mph N/A   Clear
7:55 PM 50.0 °F - 12.2 °F 22% 30.01 in 10.0 mi NW 6.9 mph - N/A   Clear
8:15 PM 44.6 °F 41.4 °F 12.2 °F 27% 30.02 in 10.0 mi West 5.8 mph - N/A   Clear
8:35 PM 46.4 °F 42.4 °F 14.0 °F 27% 30.03 in 10.0 mi West 8.1 mph - N/A   Clear
8:55 PM 44.6 °F 39.7 °F 14.0 °F 29% 30.03 in 10.0 mi West 9.2 mph - N/A   Clear
9:15 PM 41.0 °F - 12.2 °F 31% 30.05 in 10.0 mi Calm Calm - N/A   Clear
9:35 PM 39.2 °F 35.0 °F 12.2 °F 33% 30.05 in 10.0 mi West 5.8 mph - N/A   Clear
9:55 PM 39.2 °F 37.0 °F 14.0 °F 36% 30.07 in 10.0 mi North 3.5 mph - N/A   Clear
10:15 PM 39.2 °F 33.0 °F 14.0 °F 36% 30.07 in 10.0 mi West 9.2 mph - N/A   Clear
10:35 PM 39.2 °F 31.2 °F 12.2 °F 33% 30.07 in 10.0 mi West 13.8 mph - N/A   Clear
10:55 PM 39.2 °F 31.6 °F 12.2 °F 33% 30.07 in 10.0 mi West 12.7 mph - N/A   Clear
11:15 PM 35.6 °F 28.0 °F 12.2 °F 38% 30.08 in 10.0 mi West 10.4 mph - N/A   Clear
11:35 PM 35.6 °F 28.6 °F 10.4 °F 35% 30.08 in 10.0 mi West 9.2 mph - N/A   Clear
11:55 PM 37.4 °F 29.3 °F 10.4 °F 33% 30.08 in 10.0 mi West 12.7 mph - N/A   Clear